Latest Coastal Weather Observations for Yamba

IDN60701

Issued at 8:25 am EST Thursday 24 July 2014 (issued every 10 minutes, with the page automatically refreshed every 10 minutes)

About coastal observations | Map of coastal stations | Coastal observations for NSW | Marine services | Other Formats
Station Details ID: 058012 Name: YAMBA PILOT STATION Lat: -29.43 Lon: 153.36 Height: 27.4 m
Data from the previous 72 hours. | See also: Recent months at Yamba
Date/Time
EST
Temp

°C
Wind Pressure Rain
since 9am
mm
Weather Cloud Vis
km
Sea
Height
m
Swell
Dir
 
Speed
knots
Gust
knots
hPa Trend Height
m
Period
s
Dir
24/08:00am 11.7 WSW 5 7 1023.1 - 0.0 - - - - - - -
24/07:30am 11.4 WSW 6 7 1023.2 - 0.0 - - - - - - -
24/07:00am 10.9 W 6 9 1023.2 - 0.0 - - - - - - -
24/06:30am 10.8 W 7 9 1022.9 - 0.0 - - - - - - -
24/06:00am 10.7 SW 5 7 1022.1 - 0.0 - - - - - - -
24/05:30am 10.6 W 6 8 1022.2 - 0.0 - - - - - - -
24/05:00am 10.7 W 6 8 1021.9 - 0.0 - - - - - - -
24/04:30am 10.7 WSW 5 7 1021.7 - 0.0 - - - - - - -
24/04:00am 10.7 WSW 7 9 1021.6 - 0.0 - - - - - - -
24/03:30am 10.8 WSW 7 9 1021.7 - 0.0 - - - - - - -
24/03:00am 10.8 WSW 5 8 1021.6 - 0.0 - - - - - - -
24/02:30am 10.7 WSW 7 8 1021.9 - 0.0 - - - - - - -
24/02:00am 10.6 WSW 6 9 1021.9 - 0.0 - - - - - - -
24/01:30am 10.8 SW 5 7 1022.2 - 0.0 - - - - - - -
24/01:00am 10.9 WSW 6 8 1022.3 - 0.0 - - - - - - -
24/12:30am 11.2 WSW 6 9 1022.4 - 0.0 - - - - - - -
24/12:00am 11.4 SW 5 7 1022.3 - 0.0 - - - - - - -
 
Date/Time
EST
Temp

°C
Wind Pressure Rain
since 9am
mm
Weather Cloud Vis
km
Sea
Height
m
Swell
Dir
 
Speed
knots
Gust
knots
hPa Trend Height
m
Period
s
Dir
23/11:30pm 11.5 WSW 6 8 1022.8 - 0.0 - - - - - - -
23/11:00pm 11.7 WSW 6 9 1022.8 - 0.0 - - - - - - -
23/10:30pm 11.9 WSW 7 8 1022.8 - 0.0 - - - - - - -
23/10:00pm 13.4 SSW 4 6 1022.9 - 0.0 - - - - - - -
23/09:30pm 16.3 ESE 7 10 1022.5 - 0.0 - - - - - - -
23/09:00pm 16.2 ESE 6 9 1022.7 - 0.0 - - - - - - -
23/08:30pm 16.5 ESE 7 10 1022.6 - 0.0 - - - - - - -
23/08:00pm 16.4 ESE 7 11 1022.5 - 0.0 - - - - - - -
23/07:30pm 16.4 ESE 6 9 1022.4 - 0.0 - - - - - - -
23/07:00pm 16.1 SE 5 7 1022.5 - 0.0 - - - - - - -
23/06:30pm 16.3 SE 9 12 1022.3 - 0.0 - - - - - - -
23/06:00pm 16.4 SE 8 12 1022.3 - 0.0 - - - - - - -
23/05:30pm 16.4 SE 9 11 1022.1 - 0.0 - - - - - - -
23/05:00pm 16.5 SE 11 14 1021.5 - 0.0 - - - - - - -
23/04:30pm 17.2 SE 11 14 1021.4 - 0.0 - - - - - - -
23/04:00pm 17.4 SE 10 13 1021.5 - 0.0 - - - - - - -
23/03:30pm 17.7 SSE 11 16 1021.3 - 0.0 - - - - - - -
23/03:00pm 17.9 SSE 13 19 1021.1 R 0.0 Fine Mostly cloudy 35 1 1.0 7 SE
23/02:30pm 18.1 SSE 12 17 1021.1 - 0.0 - - - - - - -
23/02:00pm 18.3 SSE 11 15 1021.0 - 0.0 - - - - - - -
23/01:30pm 18.4 SSE 10 15 1021.4 - 0.0 - - - - - - -
23/01:00pm 18.2 SSE 10 15 1021.6 - 0.0 - - - - - - -
23/12:30pm 18.0 SSE 10 16 1022.0 - 0.0 - - - - - - -
23/12:00pm 18.4 S 8 11 1022.4 - 0.0 - - - - - - -
23/11:30am 17.4 SSW 6 11 1023.0 - 0.0 - - - - - - -
23/11:00am 16.7 SSW 7 11 1023.4 - 0.0 - - - - - - -
23/10:30am 15.7 SW 6 10 1023.8 - 0.0 - - - - - - -
23/10:00am 14.8 WSW 5 9 1024.0 - 0.0 - - - - - - -
23/09:30am 13.4 WSW 6 10 1024.1 - 0.0 - - - - - - -
23/09:00am 11.8 WSW 6 11 1024.0 R 1.0 Fine Partly cloudy 35 1 1.0 7 SE
23/08:30am 10.8 W 6 9 1023.7 - 1.0 - - - - - - -
23/08:00am 9.5 WSW 6 10 1023.4 - 1.0 - - - - - - -
23/07:30am 9.0 W 5 8 1023.1 - 1.0 - - - - - - -
23/07:00am 8.6 WSW 5 9 1022.9 - 1.0 - - - - - - -
23/06:30am 8.6 SW 5 8 1022.4 - 1.0 - - - - - - -
23/06:00am 8.8 WSW 6 9 1021.9 - 1.0 - - - - - - -
23/05:30am 9.1 WSW 5 11 1021.7 - 1.0 - - - - - - -
23/05:00am 9.1 SW 5 9 1021.3 - 1.0 - - - - - - -
23/04:30am 9.3 WSW 5 8 1021.2 - 1.0 - - - - - - -
23/04:00am 9.5 WSW 5 8 1021.1 - 1.0 - - - - - - -
23/03:30am 9.8 SW 4 7 1021.2 - 1.0 - - - - - - -
23/03:00am 9.9 WSW 5 7 1021.4 - 1.0 - - - - - - -
23/02:30am 10.0 W 5 7 1021.5 - 1.0 - - - - - - -
23/02:00am 10.2 WSW 4 7 1021.5 - 1.0 - - - - - - -
23/01:30am 10.7 SW 5 8 1021.8 - 1.0 - - - - - - -
23/01:00am 10.7 SW 5 10 1021.8 - 1.0 - - - - - - -
23/12:30am 10.8 WSW 5 8 1021.8 - 1.0 - - - - - - -
23/12:00am 10.9 WSW 5 9 1022.0 - 1.0 - - - - - - -
 
Date/Time
EST
Temp

°C
Wind Pressure Rain
since 9am
mm
Weather Cloud Vis
km
Sea
Height
m
Swell
Dir
 
Speed
knots
Gust
knots
hPa Trend Height
m
Period
s
Dir
22/11:30pm 11.1 WSW 4 6 1022.1 - 1.0 - - - - - - -
22/11:00pm 11.3 WSW 5 7 1022.1 - 1.0 - - - - - - -
22/10:30pm 11.4 SW 4 6 1022.0 - 0.8 - - - - - - -
22/10:00pm 11.6 SSW 5 7 1022.3 - 0.8 - - - - - - -
22/09:30pm 11.8 SW 4 6 1022.6 - 0.8 - - - - - - -
22/09:00pm 12.1 SW 4 6 1022.4 - 0.8 - - - - - - -
22/08:30pm 12.6 WSW 5 8 1022.3 - 0.8 - - - - - - -
22/08:00pm 13.3 SW 5 7 1022.1 - 0.8 - - - - - - -
22/07:30pm 13.9 SW 5 8 1022.3 - 0.8 - - - - - - -
22/07:00pm 14.5 SSW 5 7 1022.0 - 0.8 - - - - - - -
22/06:30pm 15.0 SSW 5 9 1021.6 - 0.8 - - - - - - -
22/06:00pm 16.5 SSE 6 8 1021.2 - 0.8 - - - - - - -
22/05:30pm 16.7 SSE 8 13 1021.2 - 0.8 - - - - - - -
22/05:00pm 16.2 S 4 5 1020.7 - 0.8 - - - - - - -
22/04:30pm 16.8 SSE 8 11 1020.5 - 0.8 - - - - - - -
22/04:00pm 17.0 SE 10 15 1020.5 - 0.8 - - - - - - -
22/03:30pm 17.0 SSE 10 14 1020.0 - 0.8 - - - - - - -
22/03:00pm 17.4 SE 9 12 1019.8 F 0.8 Fine Partly cloudy 35 1 1.0 8 SE
22/02:30pm 17.7 SE 10 12 1019.8 - 0.8 - - - - - - -
22/02:00pm 17.4 SE 10 12 1019.8 - 0.8 - - - - - - -
22/01:30pm 17.3 SE 7 10 1020.0 - 0.8 - - - - - - -
22/01:00pm 16.3 S 4 9 1020.3 - 0.8 - - - - - - -
22/12:30pm 16.8 SE 11 14 1020.7 - 0.6 - - - - - - -
22/12:00pm 17.5 SE 9 12 1021.3 - 0.6 - - - - - - -
22/11:30am 17.2 SSE 6 9 1021.8 - 0.6 - - - - - - -
22/11:00am 16.7 SE 6 8 1022.3 - 0.6 - - - - - - -
22/10:30am 16.4 SSW 5 7 1022.5 - 0.0 - - - - - - -
22/10:00am 15.3 SW 4 6 1022.8 - 0.0 - - - - - - -
22/09:30am 14.3 W 4 5 1023.0 - 0.0 - - - - - - -
22/09:00am 13.8 W 5 8 1022.9 R 2.6 Fine Mostly cloudy 30 1 1.0 9 SE
22/08:30am 12.8 SW 4 8 1022.6 - 2.6 - - - - - - -
22/08:00am 12.6 SSW 5 8 1022.4 - 2.6 - - - - - - -
22/07:30am 12.3 SW 5 9 1022.4 - 2.6 - - - - - - -
22/07:00am 12.0 W 5 7 1022.2 - 2.6 - - - - - - -
22/06:30am 11.9 WSW 5 8 1021.9 - 2.6 - - - - - - -
22/06:00am 11.9 WSW 5 7 1021.6 - 2.6 - - - - - - -
22/05:30am 11.9 SW 5 9 1021.4 - 2.6 - - - - - - -
22/05:00am 11.9 WSW 4 7 1021.3 - 2.6 - - - - - - -
22/04:30am 11.8 WSW 5 7 1021.2 - 2.6 - - - - - - -
22/04:00am 12.0 W 5 6 1021.3 - 2.6 - - - - - - -
22/03:30am 11.8 SW 4 6 1021.2 - 2.6 - - - - - - -
22/03:00am 11.5 W 5 7 1021.4 - 2.4 - - - - - - -
22/02:30am 11.5 W 5 7 1021.4 - 2.4 - - - - - - -
22/02:00am 11.5 W 6 7 1021.6 - 2.4 - - - - - - -
22/01:30am 11.7 SW 6 9 1021.7 - 2.4 - - - - - - -
22/01:00am 11.6 SW 5 7 1021.8 - 2.4 - - - - - - -
22/12:30am 11.8 WSW 6 8 1022.1 - 2.4 - - - - - - -
22/12:00am 12.2 WSW 5 8 1022.2 - 2.4 - - - - - - -
 
Date/Time
EST
Temp

°C
Wind Pressure Rain
since 9am
mm
Weather Cloud Vis
km
Sea
Height
m
Swell
Dir
 
Speed
knots
Gust
knots
hPa Trend Height
m
Period
s
Dir
21/11:30pm 12.6 SW 5 7 1022.2 - 2.4 - - - - - - -
21/11:00pm 12.9 SSW 5 7 1022.4 - 2.4 - - - - - - -
21/10:30pm 13.0 SW 6 8 1022.7 - 2.4 - - - - - - -
21/10:00pm 13.3 SW 5 7 1022.9 - 2.4 - - - - - - -
21/09:30pm 13.7 SSW 5 6 1022.9 - 2.4 - - - - - - -
21/09:00pm 14.1 S 6 8 1022.9 - 2.4 - - - - - - -
21/08:30pm 14.3 SSW 4 6 1023.1 - 2.4 - - - - - - -
21/08:00pm 14.1 SW 4 6 1023.2 - 2.4 - - - - - - -
21/07:30pm 14.2 SSW 4 5 1023.0 - 2.4 - - - - - - -
21/07:00pm 14.3 SSW 5 7 1022.9 - 2.4 - - - - - - -
21/06:30pm 14.6 S 5 7 1022.8 - 2.4 - - - - - - -
21/06:00pm 15.6 SSE 5 6 1022.6 - 2.4 - - - - - - -
21/05:30pm 15.4 SE 8 11 1022.1 - 2.4 - - - - - - -
21/05:00pm 15.6 SE 11 14 1022.0 - 2.4 - - - - - - -
21/04:30pm 16.1 SE 13 18 1021.8 - 2.4 - - - - - - -
21/04:00pm 16.8 S 8 13 1021.7 - 2.4 - - - - - - -
21/03:30pm 17.1 SSE 9 14 1021.6 - 2.4 - - - - - - -
21/03:00pm 17.3 S 9 16 1021.4 F 2.4 Fine Cloudy 30 1 1.0 10 SE
21/02:30pm 16.7 SSE 10 15 1021.4 - 2.4 - - - - - - -
21/02:00pm 17.1 SSE 9 13 1021.5 - 2.4 - - - - - - -
21/01:30pm 16.8 S 10 19 1021.6 - 2.4 - - - - - - -
21/01:00pm 16.6 S 10 14 1021.9 - 2.4 - - - - - - -
21/12:30pm 16.5 S 9 17 1022.5 - 2.4 - - - - - - -
21/12:00pm 15.6 S 8 13 1023.1 - 2.4 - - - - - - -
21/11:30am 15.7 S 8 13 1023.4 - 2.4 - - - - - - -
21/11:00am 14.2 S 9 12 1024.0 - 2.4 - - - - - - -
21/10:30am 14.0 SSW 6 9 1024.3 - 2.2 - - - - - - -
21/10:00am 14.0 S 8 12 1024.5 - 2.2 - - - - - - -
21/09:30am 14.1 S 8 13 1024.6 - 1.4 - - - - - - -
21/09:00am 13.8 SW 4 7 1024.4 R 7.8 Distant precip. Cloudy 30 3 2.0 10 SE
21/08:30am 13.5 SW 4 7 1024.3 - 7.8 - - - - - - -

Other Formats:

Comma delimited format used in spreadsheet applications
http://www.bom.gov.au/fwo/IDN60701/IDN60701.94589.axf

JavaScript Object Notation format (JSON) in row-major order
http://www.bom.gov.au/fwo/IDN60701/IDN60701.94589.json